Time;durP1;ratioP1;P1;durP2;ratioP2;P2;SDS_P1;SDS_P2;PMS_P1;PMS_P2;Temp;Humidity;BMP_temperature;BMP_pressure;BME280_temperature;BME280_humidity;BME280_pressure;Samples;Min_cycle;Max_cycle;Signal;HPM_P1;HPM_P2
2023/08/11 00:00:25;;;;;;;4.57;2.85;;;18.50;99.90;;;;;;5040613;28;20174;-58
2023/08/11 00:02:51;;;;;;;5.72;3.03;;;15.90;99.90;;;;;;5033233;28;20433;-55
2023/08/11 00:05:18;;;;;;;5.60;3.30;;;18.10;99.90;;;;;;5039008;28;20109;-56
2023/08/11 00:07:50;;;;;;;5.70;3.40;;;18.80;99.90;;;;;;5048583;28;20112;-53
2023/08/11 00:10:17;;;;;;;7.47;3.08;;;18.30;99.90;;;;;;5052597;28;20106;-53
2023/08/11 00:12:42;;;;;;;7.32;3.22;;;17.80;99.90;;;;;;5052235;28;20389;-54
2023/08/11 00:15:08;;;;;;;6.47;3.17;;;16.40;99.90;;;;;;5052597;28;20096;-54
2023/08/11 00:17:34;;;;;;;5.72;3.40;;;18.30;99.90;;;;;;5052428;28;20067;-56
2023/08/11 00:20:00;;;;;;;6.75;3.53;;;;;;;;;;5052457;28;20021;-53
2023/08/11 00:22:26;;;;;;;6.53;3.10;;;15.80;99.90;;;;;;5052497;28;20104;-52
2023/08/11 00:24:52;;;;;;;4.85;3.00;;;17.30;99.90;;;;;;5052081;28;20020;-50
2023/08/11 00:27:18;;;;;;;6.03;3.25;;;14.50;99.90;;;;;;5052277;28;20025;-56
2023/08/11 00:29:44;;;;;;;5.70;2.72;;;14.50;99.90;;;;;;5052307;28;20236;-52
2023/08/11 00:32:09;;;;;;;5.93;3.63;;;18.20;99.90;;;;;;5052303;28;20100;-53
2023/08/11 00:34:35;;;;;;;6.90;4.22;;;19.20;99.90;;;;;;5052138;28;20393;-52
2023/08/11 00:37:01;;;;;;;6.82;4.22;;;17.50;99.90;;;;;;5051824;28;20048;-52
2023/08/11 00:39:26;;;;;;;9.13;4.95;;;16.10;99.90;;;;;;5051249;28;20036;-50
2023/08/11 00:41:52;;;;;;;9.15;4.65;;;14.50;99.90;;;;;;5052153;28;20025;-53
2023/08/11 00:44:18;;;;;;;7.00;3.70;;;17.80;99.90;;;;;;5051921;28;20559;-59
2023/08/11 00:46:45;;;;;;;7.00;4.00;;;17.00;99.90;;;;;;5051689;28;20055;-52
2023/08/11 00:49:11;;;;;;;7.03;4.32;;;17.20;99.90;;;;;;5051269;28;20448;-52
2023/08/11 00:51:37;;;;;;;9.32;3.40;;;15.80;99.90;;;;;;5051754;28;20104;-49
2023/08/11 00:54:04;;;;;;;5.68;3.10;;;18.00;99.90;;;;;;5051088;28;20017;-51
2023/08/11 00:56:29;;;;;;;5.95;3.20;;;18.00;99.90;;;;;;5051645;28;20040;-48
2023/08/11 00:58:55;;;;;;;7.03;3.33;;;17.30;99.90;;;;;;5051507;28;20025;-54
2023/08/11 01:01:21;;;;;;;6.95;3.45;;;15.70;99.90;;;;;;5051764;28;20200;-56
2023/08/11 01:03:47;;;;;;;5.50;3.13;;;14.40;99.90;;;;;;5051091;28;20025;-48
2023/08/11 01:06:44;;;;;;;7.30;4.20;;;17.60;99.90;;;;;;5051339;28;20473;-49
2023/08/11 01:09:28;;;;;;;7.30;4.13;;;19.10;99.90;;;;;;5051709;28;20033;-52
2023/08/11 01:12:05;;;;;;;8.30;5.07;;;17.20;99.90;;;;;;5039469;28;20021;-53
2023/08/11 01:14:42;;;;;;;13.70;7.07;;;16.00;99.90;;;;;;5051410;28;20055;-50
2023/08/11 01:17:10;;;;;;;13.07;7.85;;;16.50;99.90;;;;;;5051293;28;20112;-54
2023/08/11 01:19:37;;;;;;;14.32;9.80;;;15.40;99.90;;;;;;5051153;28;20556;-48
2023/08/11 01:22:10;;;;;;;16.10;8.95;;;14.50;99.90;;;;;;5051485;28;20029;-52
2023/08/11 01:24:38;;;;;;;14.70;9.82;;;17.80;99.90;;;;;;5050484;28;20024;-55
2023/08/11 01:27:03;;;;;;;13.73;9.00;;;17.00;99.90;;;;;;5051150;28;20039;-52
2023/08/11 01:29:29;;;;;;;14.52;8.27;;;17.20;99.90;;;;;;5051086;28;20100;-48
2023/08/11 01:31:55;;;;;;;12.88;8.02;;;17.90;99.90;;;;;;5050892;28;20017;-55
2023/08/11 01:34:21;;;;;;;12.05;7.45;;;15.10;99.90;;;;;;5051078;28;20068;-54
2023/08/11 01:36:50;;;;;;;12.30;7.70;;;17.70;99.90;;;;;;5051011;28;20033;-50
2023/08/11 01:39:16;;;;;;;11.95;7.18;;;17.50;99.90;;;;;;5050910;28;20047;-51
2023/08/11 01:41:41;;;;;;;13.30;7.82;;;14.20;99.90;;;;;;5050891;28;20033;-54
2023/08/11 01:44:08;;;;;;;12.07;6.85;;;16.70;99.90;;;;;;5050608;28;20017;-52
2023/08/11 01:46:34;;;;;;;13.07;7.00;;;;;;;;;;5050680;28;20517;-53
2023/08/11 01:49:00;;;;;;;9.07;6.50;;;;;;;;;;5050520;28;20025;-53
2023/08/11 01:51:27;;;;;;;10.80;6.97;;;18.80;99.90;;;;;;5050598;28;20029;-52
2023/08/11 01:53:53;;;;;;;12.55;7.57;;;16.80;99.90;;;;;;5050487;28;20027;-57
2023/08/11 01:56:20;;;;;;;10.23;6.75;;;16.70;99.90;;;;;;5050450;28;20104;-50
2023/08/11 01:58:45;;;;;;;12.40;7.78;;;17.70;99.90;;;;;;5050360;28;20509;-48
2023/08/11 02:01:13;;;;;;;12.98;6.55;;;18.10;99.90;;;;;;5050517;28;20100;-54
2023/08/11 02:03:39;;;;;;;10.82;6.47;;;14.60;99.90;;;;;;5050367;28;20028;-51
2023/08/11 02:06:05;;;;;;;13.10;6.78;;;;;;;;;;5050222;28;20060;-50
2023/08/11 02:08:32;;;;;;;12.43;6.30;;;16.30;99.90;;;;;;5050204;28;20466;-52
2023/08/11 02:10:57;;;;;;;13.38;6.88;;;17.70;99.90;;;;;;5049971;28;20036;-53
2023/08/11 02:13:23;;;;;;;12.10;6.70;;;18.80;99.90;;;;;;5050617;28;20017;-48
2023/08/11 02:15:49;;;;;;;12.52;7.45;;;15.20;99.90;;;;;;5049333;28;20025;-51
2023/08/11 02:18:14;;;;;;;13.20;7.82;;;14.10;99.90;;;;;;5049710;28;20397;-55
2023/08/11 02:20:41;;;;;;;11.68;7.50;;;17.60;99.90;;;;;;5050465;28;20079;-48
2023/08/11 02:23:08;;;;;;;11.70;7.05;;;17.50;99.90;;;;;;5050075;28;20036;-51
2023/08/11 02:25:34;;;;;;;11.43;7.00;;;16.30;99.90;;;;;;5049426;28;20052;-51
2023/08/11 02:27:59;;;;;;;14.00;6.57;;;17.50;99.90;;;;;;5049626;28;20021;-53
2023/08/11 02:30:29;;;;;;;12.55;6.80;;;16.40;99.90;;;;;;5048654;28;20040;-54
2023/08/11 02:32:55;;;;;;;14.88;7.53;;;17.20;99.90;;;;;;5049968;28;20048;-57
2023/08/11 02:35:21;;;;;;;10.85;6.97;;;17.40;99.90;;;;;;5050616;28;20489;-53
2023/08/11 02:37:48;;;;;;;14.93;7.53;;;14.30;99.90;;;;;;5054198;28;20053;-52
2023/08/11 02:40:14;;;;;;;11.02;6.80;;;17.70;99.90;;;;;;5053535;28;20013;-48
2023/08/11 02:42:54;;;;;;;13.32;7.50;;;17.00;99.90;;;;;;5053938;28;20032;-50
2023/08/11 02:45:20;;;;;;;13.80;7.93;;;18.60;99.90;;;;;;5053814;28;20048;-53
2023/08/11 02:47:46;;;;;;;13.23;7.15;;;18.10;99.90;;;;;;5053672;28;20035;-59
2023/08/11 02:50:13;;;;;;;14.73;8.88;;;;;;;;;;5053612;28;20103;-50
2023/08/11 02:52:38;;;;;;;14.38;6.88;;;17.20;99.90;;;;;;5053766;28;20493;-49
2023/08/11 02:55:05;;;;;;;11.80;6.50;;;17.40;99.90;;;;;;5053719;28;20064;-51
2023/08/11 02:57:31;;;;;;;12.73;5.32;;;18.20;99.90;;;;;;5053094;28;20037;-52
2023/08/11 02:59:57;;;;;;;10.05;5.53;;;18.40;99.90;;;;;;5053609;28;20017;-51
2023/08/11 03:02:23;;;;;;;8.60;5.07;;;17.50;99.90;;;;;;5053477;28;20025;-49
2023/08/11 03:04:49;;;;;;;11.52;6.15;;;18.90;99.90;;;;;;5053471;28;20052;-55
2023/08/11 03:07:16;;;;;;;9.80;5.47;;;17.60;99.90;;;;;;5052901;28;20029;-51
2023/08/11 03:09:42;;;;;;;12.07;5.95;;;;;;;;;;5053344;28;20083;-49
2023/08/11 03:12:08;;;;;;;10.98;5.13;;;18.50;99.90;;;;;;5053584;28;20079;-54
2023/08/11 03:14:36;;;;;;;7.85;5.10;;;16.20;99.90;;;;;;5053495;28;20033;-50
2023/08/11 03:17:05;;;;;;;8.70;4.80;;;17.90;99.90;;;;;;5053405;28;20044;-54
2023/08/11 03:19:31;;;;;;;9.52;4.47;;;18.70;99.90;;;;;;5053411;28;20470;-50
2023/08/11 03:21:57;;;;;;;8.80;4.10;;;18.30;99.90;;;;;;5052921;28;20032;-50
2023/08/11 03:24:22;;;;;;;10.82;4.07;;;18.50;99.90;;;;;;5053167;28;20025;-51
2023/08/11 03:26:48;;;;;;;11.15;3.95;;;18.80;99.90;;;;;;5053191;28;20025;-49
2023/08/11 03:29:13;;;;;;;10.82;4.13;;;17.20;99.90;;;;;;5053285;28;20118;-47
2023/08/11 03:31:39;;;;;;;7.07;3.58;;;17.90;99.90;;;;;;5052948;28;20032;-49
2023/08/11 03:34:05;;;;;;;8.57;3.35;;;15.80;99.90;;;;;;5053155;28;20017;-52
2023/08/11 03:36:30;;;;;;;11.45;3.72;;;18.20;99.90;;;;;;5052837;28;20037;-53
2023/08/11 03:38:57;;;;;;;8.60;3.10;;;;;;;;;;5053056;28;20060;-52
2023/08/11 03:41:22;;;;;;;6.47;2.55;;;18.90;99.90;;;;;;5050863;28;20029;-57
2023/08/11 03:43:48;;;;;;;9.02;2.22;;;20.20;99.90;;;;;;5052879;28;20051;-54
2023/08/11 03:46:14;;;;;;;4.93;1.90;;;18.90;99.90;;;;;;5052182;28;20049;-54
2023/08/11 03:48:41;;;;;;;6.50;2.22;;;19.70;99.90;;;;;;5052322;28;20028;-51
2023/08/11 03:51:07;;;;;;;8.25;2.13;;;18.20;99.90;;;;;;5052587;28;20373;-48
2023/08/11 03:53:33;;;;;;;4.85;2.20;;;17.60;99.90;;;;;;5052795;28;20033;-55
2023/08/11 03:55:59;;;;;;;4.05;2.22;;;18.90;99.90;;;;;;5052499;28;20053;-54
2023/08/11 03:58:25;;;;;;;6.20;1.77;;;18.60;99.90;;;;;;5052608;28;20430;-52
2023/08/11 04:00:50;;;;;;;9.15;2.08;;;18.80;99.90;;;;;;5052573;28;20071;-48
2023/08/11 04:03:16;;;;;;;10.63;2.33;;;15.80;99.90;;;;;;5052161;28;20033;-52
2023/08/11 04:05:42;;;;;;;4.32;1.98;;;18.60;99.90;;;;;;5052070;28;20108;-53
2023/08/11 04:08:07;;;;;;;10.20;2.42;;;18.80;99.90;;;;;;5051776;28;20099;-51
2023/08/11 04:10:38;;;;;;;11.85;3.22;;;20.00;99.90;;;;;;5051744;28;20028;-53
2023/08/11 04:13:04;;;;;;;9.15;2.60;;;18.70;99.90;;;;;;5034363;28;20433;-57
2023/08/11 04:15:31;;;;;;;6.65;2.25;;;19.20;99.90;;;;;;5045873;28;20047;-51
2023/08/11 04:17:56;;;;;;;8.23;3.15;;;19.50;99.90;;;;;;5036314;28;20056;-49
2023/08/11 04:20:22;;;;;;;6.68;3.00;;;19.30;99.90;;;;;;5046416;28;20401;-56
2023/08/11 04:22:47;;;;;;;10.70;2.70;;;18.50;99.90;;;;;;5038608;28;20045;-50
2023/08/11 04:25:13;;;;;;;9.40;2.88;;;18.40;99.90;;;;;;5046127;28;20466;-54
2023/08/11 04:27:39;;;;;;;7.95;2.83;;;18.90;99.90;;;;;;5051110;28;20039;-55
2023/08/11 04:30:06;;;;;;;7.32;3.22;;;20.60;99.90;;;;;;5048041;28;20052;-54
2023/08/11 04:32:32;;;;;;;9.07;3.60;;;19.40;99.90;;;;;;5044033;28;20033;-50
2023/08/11 04:34:58;;;;;;;8.75;3.08;;;20.70;99.90;;;;;;5051338;28;20082;-51
2023/08/11 04:37:24;;;;;;;7.65;3.47;;;19.40;99.90;;;;;;5051764;28;20033;-53
2023/08/11 04:39:49;;;;;;;9.73;2.38;;;18.60;99.90;;;;;;5038000;28;20029;-52
2023/08/11 04:42:15;;;;;;;7.57;2.70;;;16.40;99.90;;;;;;5037732;28;20167;-47
2023/08/11 04:44:41;;;;;;;8.95;2.45;;;18.80;99.90;;;;;;5041901;28;20025;-52
2023/08/11 04:47:06;;;;;;;10.80;3.25;;;20.70;99.90;;;;;;5048599;28;20041;-56
2023/08/11 04:49:32;;;;;;;7.05;2.40;;;;;;;;;;5047135;28;20025;-51
2023/08/11 04:52:01;;;;;;;5.78;2.13;;;16.40;99.90;;;;;;5050133;28;20036;-53
2023/08/11 04:54:27;;;;;;;7.90;2.00;;;19.10;99.90;;;;;;5049192;28;20025;-51
2023/08/11 04:56:53;;;;;;;5.95;2.08;;;;;;;;;;5047688;28;20094;-48
2023/08/11 04:59:20;;;;;;;7.60;1.98;;;17.90;99.90;;;;;;5031189;28;20112;-50
2023/08/11 05:01:46;;;;;;;6.35;1.70;;;;;;;;;;5033967;28;20443;-50
2023/08/11 05:04:12;;;;;;;7.65;2.00;;;;;;;;;;5033749;28;20529;-54
2023/08/11 05:06:38;;;;;;;6.38;1.83;;;;;;;;;;5031573;28;20026;-56
2023/08/11 05:09:04;;;;;;;4.55;1.88;;;;;;;;;;5033659;28;20458;-53
2023/08/11 05:11:30;;;;;;;7.18;1.50;;;19.30;99.90;;;;;;5033873;28;20032;-51
2023/08/11 05:13:56;;;;;;;2.15;1.35;;;20.80;99.90;;;;;;5033472;28;20030;-48
2023/08/11 05:16:22;;;;;;;6.15;2.15;;;18.90;99.90;;;;;;5031387;28;20033;-49
2023/08/11 05:18:48;;;;;;;4.47;1.48;;;19.30;99.90;;;;;;5032415;28;20112;-48
2023/08/11 05:21:13;;;;;;;8.32;1.90;;;18.70;99.90;;;;;;5032876;28;20058;-51
2023/08/11 05:23:39;;;;;;;4.85;1.80;;;19.60;99.90;;;;;;5029698;28;20036;-55
2023/08/11 05:26:05;;;;;;;6.25;1.48;;;18.40;99.90;;;;;;5031084;28;20025;-52
2023/08/11 05:28:30;;;;;;;10.00;1.98;;;19.60;99.90;;;;;;5032151;28;20087;-51
2023/08/11 05:30:56;;;;;;;8.80;1.80;;;;;;;;;;5034110;28;20021;-49
2023/08/11 05:33:24;;;;;;;6.53;1.95;;;20.50;99.90;;;;;;5031101;28;20025;-48
2023/08/11 05:35:50;;;;;;;4.07;1.65;;;20.40;99.90;;;;;;5034365;28;20100;-51
2023/08/11 05:38:21;;;;;;;7.97;1.65;;;19.40;99.90;;;;;;5033407;28;20121;-55
2023/08/11 05:40:48;;;;;;;6.72;1.75;;;19.60;99.90;;;;;;5029135;28;20029;-52
2023/08/11 05:43:14;;;;;;;8.43;1.75;;;;;;;;;;5031751;28;20029;-53
2023/08/11 05:45:40;;;;;;;7.60;1.80;;;19.70;99.90;;;;;;5032147;28;20125;-52
2023/08/11 05:48:06;;;;;;;8.63;1.80;;;16.40;99.90;;;;;;5032242;28;20017;-55
2023/08/11 05:50:31;;;;;;;9.95;2.10;;;18.50;99.90;;;;;;5032121;28;20021;-51
2023/08/11 05:52:57;;;;;;;7.85;1.88;;;;;;;;;;5048885;28;20381;-51
2023/08/11 05:55:23;;;;;;;4.57;2.00;;;19.00;99.90;;;;;;5050397;28;20025;-52
2023/08/11 05:57:49;;;;;;;6.28;1.55;;;19.10;99.90;;;;;;5050629;28;20086;-53
2023/08/11 06:00:18;;;;;;;4.65;1.70;;;18.50;99.90;;;;;;5050538;28;20028;-51
2023/08/11 06:02:44;;;;;;;6.20;1.45;;;19.10;99.90;;;;;;5050858;28;20016;-56
2023/08/11 06:05:15;;;;;;;5.15;1.95;;;18.90;99.90;;;;;;5050528;28;20032;-50
2023/08/11 06:07:41;;;;;;;3.97;1.33;;;16.90;99.90;;;;;;5050360;28;20029;-48
2023/08/11 06:10:07;;;;;;;6.32;1.35;;;19.00;99.90;;;;;;5050240;28;20025;-52
2023/08/11 06:12:33;;;;;;;5.93;1.40;;;;;;;;;;5050137;28;20036;-51
2023/08/11 06:14:58;;;;;;;3.47;1.13;;;16.50;99.90;;;;;;5050459;28;20462;-55
2023/08/11 06:17:25;;;;;;;6.97;1.60;;;20.90;99.90;;;;;;5050238;28;20036;-48
2023/08/11 06:19:50;;;;;;;2.78;0.80;;;20.00;99.90;;;;;;5050512;28;20025;-50
2023/08/11 06:22:16;;;;;;;5.57;1.30;;;19.40;99.90;;;;;;5050296;28;20099;-52
2023/08/11 06:24:42;;;;;;;2.58;1.10;;;19.90;99.90;;;;;;5050274;28;20020;-52
2023/08/11 06:27:09;;;;;;;5.65;1.10;;;19.70;99.90;;;;;;5050284;28;20025;-51
2023/08/11 06:29:35;;;;;;;4.10;1.08;;;18.20;99.90;;;;;;5050050;28;20033;-51
2023/08/11 06:32:01;;;;;;;8.95;1.65;;;19.40;99.90;;;;;;5050063;28;20025;-52
2023/08/11 06:34:26;;;;;;;4.03;1.40;;;16.80;99.90;;;;;;5050159;28;20068;-54
2023/08/11 06:36:52;;;;;;;4.35;1.30;;;20.30;99.90;;;;;;5050084;28;20036;-49
2023/08/11 06:39:17;;;;;;;3.97;1.17;;;19.50;99.90;;;;;;5050089;28;20100;-53
2023/08/11 06:41:43;;;;;;;4.22;1.30;;;20.70;99.90;;;;;;5050036;28;20079;-48
2023/08/11 06:44:09;;;;;;;6.47;1.23;;;19.90;99.90;;;;;;5049919;28;20385;-52
2023/08/11 06:46:34;;;;;;;3.25;1.10;;;16.50;99.90;;;;;;5049831;28;20069;-56
2023/08/11 06:49:00;;;;;;;3.33;1.00;;;20.00;99.90;;;;;;5049803;28;20071;-55
2023/08/11 06:51:26;;;;;;;4.28;1.38;;;;;;;;;;5050099;28;20048;-51
2023/08/11 06:53:52;;;;;;;3.03;0.95;;;19.70;99.90;;;;;;5049848;28;20071;-48
2023/08/11 06:56:17;;;;;;;3.72;0.95;;;20.30;99.90;;;;;;5049914;28;20025;-56
2023/08/11 06:58:43;;;;;;;3.63;1.00;;;;;;;;;;5049900;28;20028;-50
2023/08/11 07:01:09;;;;;;;5.07;0.98;;;20.10;99.90;;;;;;5050050;28;20016;-53
2023/08/11 07:03:34;;;;;;;2.47;0.95;;;19.40;99.90;;;;;;5050000;28;20521;-54
2023/08/11 07:06:01;;;;;;;2.30;0.85;;;17.00;99.90;;;;;;5049924;28;20155;-51
2023/08/11 07:08:27;;;;;;;6.53;1.10;;;19.90;99.90;;;;;;5049993;28;20021;-49
2023/08/11 07:10:53;;;;;;;1.88;0.80;;;19.60;99.90;;;;;;5049823;28;20041;-51
2023/08/11 07:13:18;;;;;;;4.07;1.00;;;21.10;99.90;;;;;;5049826;28;20421;-51
2023/08/11 07:15:44;;;;;;;3.13;0.70;;;20.70;99.90;;;;;;5049712;28;20108;-51
2023/08/11 07:18:10;;;;;;;5.43;1.38;;;17.00;99.90;;;;;;5049927;28;20451;-54
2023/08/11 07:20:41;;;;;;;4.07;0.80;;;18.80;99.90;;;;;;5049795;28;20539;-57
2023/08/11 07:23:06;;;;;;;6.18;1.27;;;21.20;99.90;;;;;;5051600;28;20024;-52
2023/08/11 07:25:32;;;;;;;2.28;1.00;;;20.50;99.90;;;;;;5053418;28;20537;-53
2023/08/11 07:27:57;;;;;;;2.92;1.15;;;20.00;99.90;;;;;;5053182;28;20083;-51
2023/08/11 07:30:23;;;;;;;2.80;1.00;;;;;;;;;;5053440;28;20107;-56
2023/08/11 07:32:49;;;;;;;1.17;0.77;;;16.70;99.90;;;;;;5053214;28;20091;-52
2023/08/11 07:35:14;;;;;;;7.05;1.15;;;19.80;99.90;;;;;;5053354;28;20040;-53
2023/08/11 07:37:40;;;;;;;3.53;1.00;;;;;;;;;;5052850;28;20382;-50
2023/08/11 07:40:07;;;;;;;5.40;0.90;;;21.40;99.90;;;;;;5034766;28;20037;-48
2023/08/11 07:42:33;;;;;;;1.73;0.70;;;17.20;99.90;;;;;;5041842;28;20097;-55
2023/08/11 07:44:59;;;;;;;3.17;0.98;;;20.50;99.90;;;;;;5042674;28;20049;-53
2023/08/11 07:47:24;;;;;;;4.60;0.98;;;20.20;99.90;;;;;;5038154;28;20071;-49
2023/08/11 07:49:50;;;;;;;1.33;0.70;;;20.30;99.90;;;;;;5037662;28;20141;-50
2023/08/11 07:52:17;;;;;;;1.65;0.77;;;19.80;99.90;;;;;;5050070;28;20028;-55
2023/08/11 07:54:43;;;;;;;3.08;1.15;;;20.50;99.90;;;;;;5052752;28;20405;-53
2023/08/11 07:57:08;;;;;;;3.30;0.82;;;19.40;99.90;;;;;;5052321;28;20041;-50
2023/08/11 07:59:34;;;;;;;3.17;0.93;;;22.90;99.90;;;;;;5052834;28;20074;-52
2023/08/11 08:01:59;;;;;;;1.77;0.75;;;20.80;99.90;;;;;;5052562;28;20393;-48
2023/08/11 08:04:25;;;;;;;4.13;0.90;;;19.50;99.90;;;;;;5052462;28;20032;-48
2023/08/11 08:06:51;;;;;;;4.80;1.08;;;20.60;99.90;;;;;;5052628;28;20028;-54
2023/08/11 08:09:18;;;;;;;1.98;0.60;;;22.20;99.90;;;;;;5052276;28;20032;-54
2023/08/11 08:11:45;;;;;;;1.98;0.75;;;20.70;99.90;;;;;;5052374;28;20040;-48
2023/08/11 08:14:11;;;;;;;2.22;0.80;;;21.10;99.90;;;;;;5036491;28;20355;-52
2023/08/11 08:16:38;;;;;;;2.38;0.80;;;20.60;99.90;;;;;;5037938;28;20124;-52
2023/08/11 08:19:05;;;;;;;1.75;0.85;;;17.50;99.90;;;;;;5037751;28;20017;-53
2023/08/11 08:21:32;;;;;;;1.83;1.02;;;20.70;99.90;;;;;;5046052;28;20083;-56
2023/08/11 08:23:58;;;;;;;4.38;1.02;;;20.60;99.90;;;;;;5035937;28;20092;-54
2023/08/11 08:26:24;;;;;;;2.85;0.70;;;21.00;99.90;;;;;;5034082;28;20090;-50
2023/08/11 08:28:50;;;;;;;2.15;0.98;;;17.90;99.90;;;;;;5037937;28;20089;-53
2023/08/11 08:31:16;;;;;;;3.42;0.75;;;19.00;99.90;;;;;;5037812;28;20111;-48
2023/08/11 08:33:43;;;;;;;1.55;0.82;;;20.70;99.90;;;;;;5032127;28;20474;-56
2023/08/11 08:36:09;;;;;;;1.35;0.88;;;20.60;99.90;;;;;;5032083;28;20056;-50
2023/08/11 08:38:35;;;;;;;2.22;1.02;;;20.10;99.90;;;;;;5037612;28;20029;-53
2023/08/11 08:41:02;;;;;;;3.10;0.80;;;21.10;99.90;;;;;;5035996;28;20025;-49
2023/08/11 08:43:29;;;;;;;2.03;0.88;;;21.50;99.90;;;;;;5033072;28;20033;-51
2023/08/11 08:46:01;;;;;;;1.73;0.60;;;20.90;99.90;;;;;;5037163;28;20053;-48
2023/08/11 08:48:55;;;;;;;2.00;0.88;;;21.00;99.90;;;;;;5037379;28;20014;-53
2023/08/11 08:51:21;;;;;;;0.73;0.40;;;;;;;;;;5033709;28;20037;-55
2023/08/11 08:53:48;;;;;;;0.65;0.50;;;21.30;99.90;;;;;;5052068;28;20029;-51
2023/08/11 08:56:14;;;;;;;3.72;1.15;;;21.00;99.90;;;;;;5051779;28;20563;-52
2023/08/11 08:58:41;;;;;;;3.03;0.90;;;21.80;99.90;;;;;;5051563;28;20044;-48
2023/08/11 09:01:09;;;;;;;0.60;0.50;;;20.70;99.90;;;;;;5050457;28;20017;-47
2023/08/11 09:03:36;;;;;;;2.38;0.70;;;20.70;99.90;;;;;;5039735;28;20025;-49
2023/08/11 09:06:03;;;;;;;1.90;0.73;;;18.10;99.90;;;;;;5047735;28;20572;-57
2023/08/11 09:08:31;;;;;;;0.70;0.52;;;21.50;99.90;;;;;;5050172;28;20107;-52
2023/08/11 09:10:57;;;;;;;0.63;0.52;;;20.80;99.90;;;;;;5047703;28;20125;-51
2023/08/11 09:13:25;;;;;;;2.00;0.70;;;22.80;99.90;;;;;;5031366;28;20112;-47
2023/08/11 09:15:51;;;;;;;3.85;0.70;;;22.00;99.90;;;;;;5031297;28;20014;-52
2023/08/11 09:18:16;;;;;;;0.65;0.65;;;22.10;99.90;;;;;;5031523;28;20444;-54
2023/08/11 09:20:45;;;;;;;1.10;0.65;;;21.50;99.90;;;;;;5031410;28;20482;-48
2023/08/11 09:23:10;;;;;;;1.70;0.90;;;22.10;99.90;;;;;;5031540;28;20027;-57
2023/08/11 09:25:37;;;;;;;2.53;0.85;;;21.60;99.90;;;;;;5031401;28;20100;-51
2023/08/11 09:28:03;;;;;;;3.67;0.98;;;20.40;99.90;;;;;;5038621;28;20100;-47
2023/08/11 09:30:34;;;;;;;2.65;0.68;;;22.30;99.90;;;;;;5039511;28;20029;-53
2023/08/11 09:33:01;;;;;;;1.83;0.75;;;22.80;99.90;;;;;;5039290;28;20025;-51
2023/08/11 09:35:26;;;;;;;1.60;0.65;;;22.10;99.90;;;;;;5034103;28;20017;-50
2023/08/11 09:37:54;;;;;;;2.10;0.90;;;22.30;99.90;;;;;;5036191;28;20443;-51
2023/08/11 09:40:21;;;;;;;2.00;0.75;;;21.90;99.90;;;;;;5039302;28;20478;-50
2023/08/11 09:42:46;;;;;;;2.60;0.60;;;22.40;99.90;;;;;;5038991;28;20029;-55
2023/08/11 09:45:12;;;;;;;2.38;0.88;;;22.20;99.90;;;;;;5030755;28;20075;-55
2023/08/11 09:47:38;;;;;;;2.40;1.00;;;24.00;99.90;;;;;;5039491;28;20036;-53
2023/08/11 09:50:04;;;;;;;4.70;0.95;;;23.00;99.90;;;;;;5030941;28;20021;-52
2023/08/11 09:52:33;;;;;;;2.88;0.98;;;22.30;99.90;;;;;;5050159;28;20021;-47
2023/08/11 09:54:59;;;;;;;4.85;1.20;;;25.60;99.90;;;;;;5050864;28;20097;-56
2023/08/11 09:57:25;;;;;;;4.55;1.10;;;25.10;99.90;;;;;;5050667;28;20500;-47
2023/08/11 09:59:53;;;;;;;2.15;1.23;;;24.70;99.90;;;;;;5050560;28;20032;-52
2023/08/11 10:02:24;;;;;;;3.20;0.90;;;24.50;99.90;;;;;;5048455;28;20099;-47
2023/08/11 10:04:57;;;;;;;2.60;0.98;;;27.40;99.90;;;;;;5038890;28;20027;-50
2023/08/11 10:07:40;;;;;;;2.50;0.90;;;23.80;99.90;;;;;;5039941;28;20029;-49
2023/08/11 10:10:17;;;;;;;3.95;1.30;;;25.50;99.90;;;;;;5050322;28;20041;-52
2023/08/11 10:12:48;;;;;;;3.67;0.80;;;25.40;99.90;;;;;;5050608;28;20021;-51
2023/08/11 10:15:19;;;;;;;3.85;1.23;;;24.50;99.90;;;;;;5050348;28;20161;-51
2023/08/11 10:17:45;;;;;;;4.18;1.10;;;24.40;99.90;;;;;;5050545;28;20116;-51
2023/08/11 10:20:11;;;;;;;2.85;1.00;;;25.60;99.90;;;;;;5050507;28;20075;-55
2023/08/11 10:22:38;;;;;;;4.15;1.02;;;27.40;99.90;;;;;;5050133;28;20055;-51
2023/08/11 10:25:06;;;;;;;3.95;0.98;;;25.90;99.90;;;;;;5050264;28;20036;-52
2023/08/11 10:27:34;;;;;;;5.20;1.33;;;26.60;99.90;;;;;;5050262;28;20052;-47
2023/08/11 10:30:03;;;;;;;1.30;0.65;;;26.20;99.90;;;;;;5050299;28;20520;-54
2023/08/11 10:32:32;;;;;;;5.10;1.02;;;25.00;99.90;;;;;;5050205;28;20025;-51
2023/08/11 10:34:58;;;;;;;3.80;1.13;;;24.90;99.90;;;;;;5050382;28;20029;-51
2023/08/11 10:37:30;;;;;;;3.50;0.77;;;24.80;99.90;;;;;;5050135;28;20052;-52
2023/08/11 10:40:09;;;;;;;3.55;1.10;;;24.70;99.90;;;;;;5043526;28;20096;-50
2023/08/11 10:42:39;;;;;;;2.25;0.95;;;25.00;99.90;;;;;;5034346;28;20104;-47
2023/08/11 10:45:14;;;;;;;4.38;0.88;;;24.70;99.90;;;;;;5036981;28;20116;-48
2023/08/11 10:47:58;;;;;;;3.20;1.20;;;24.80;99.90;;;;;;5036029;28;20033;-49
2023/08/11 10:50:25;;;;;;;3.88;1.15;;;24.70;99.90;;;;;;5031686;28;20432;-49
2023/08/11 10:53:18;;;;;;;2.45;1.00;;;24.60;99.90;;;;;;5049740;28;20036;-47
2023/08/11 10:56:02;;;;;;;5.18;1.38;;;24.50;99.90;;;;;;5049743;28;20022;-48
2023/08/11 10:58:32;;;;;;;3.13;1.00;;;24.50;99.90;;;;;;5051991;28;20041;-53
2023/08/11 11:00:58;;;;;;;3.67;0.98;;;24.60;99.90;;;;;;5036816;28;20049;-50
2023/08/11 11:03:25;;;;;;;2.92;0.93;;;24.50;99.90;;;;;;5035104;28;20116;-53
2023/08/11 11:05:51;;;;;;;4.22;1.30;;;24.00;99.90;;;;;;5038356;28;20029;-48
2023/08/11 11:08:16;;;;;;;3.05;1.00;;;25.30;99.90;;;;;;5037380;28;20041;-53
2023/08/11 11:10:42;;;;;;;2.38;1.15;;;24.10;99.90;;;;;;5039028;28;20017;-47
2023/08/11 11:13:08;;;;;;;5.72;1.60;;;23.90;99.90;;;;;;5040251;28;20505;-50
2023/08/11 11:15:34;;;;;;;5.32;1.13;;;23.80;99.90;;;;;;5041394;28;20030;-46
2023/08/11 11:18:00;;;;;;;1.45;0.93;;;23.70;99.90;;;;;;5039141;28;20042;-52
2023/08/11 11:20:27;;;;;;;3.65;1.35;;;23.40;99.90;;;;;;5038424;28;20024;-50
2023/08/11 11:22:53;;;;;;;2.75;1.15;;;23.90;99.90;;;;;;5042727;28;20052;-50
2023/08/11 11:25:20;;;;;;;3.38;1.10;;;23.60;99.90;;;;;;5044031;28;20112;-50
2023/08/11 11:27:46;;;;;;;7.03;1.90;;;20.90;99.90;;;;;;5042726;28;20040;-50
2023/08/11 11:30:13;;;;;;;1.50;0.90;;;23.30;99.90;;;;;;5045903;28;20601;-53
2023/08/11 11:32:40;;;;;;;3.80;1.23;;;23.20;99.90;;;;;;5049594;28;20398;-49
2023/08/11 11:35:07;;;;;;;4.97;1.30;;;22.10;99.90;;;;;;5033765;28;20032;-46
2023/08/11 11:37:33;;;;;;;2.40;1.17;;;22.50;99.90;;;;;;5043697;28;20060;-46
2023/08/11 11:40:00;;;;;;;2.22;1.10;;;23.60;99.90;;;;;;5052942;28;20370;-48
2023/08/11 11:42:29;;;;;;;2.50;1.08;;;23.00;99.90;;;;;;5052855;28;20036;-52
2023/08/11 11:44:58;;;;;;;3.65;1.25;;;21.70;99.90;;;;;;5052504;28;20021;-47
2023/08/11 11:47:24;;;;;;;4.28;1.13;;;22.20;99.90;;;;;;5053062;28;20120;-50
2023/08/11 11:50:04;;;;;;;4.22;1.40;;;23.00;99.90;;;;;;5052604;28;20032;-56
2023/08/11 11:52:30;;;;;;;4.10;1.20;;;21.00;99.90;;;;;;5042957;28;20025;-56
2023/08/11 11:54:55;;;;;;;2.55;1.10;;;22.80;99.90;;;;;;5049107;28;20088;-57
2023/08/11 11:57:22;;;;;;;4.03;1.20;;;22.60;99.90;;;;;;5047671;28;20057;-57
2023/08/11 11:59:49;;;;;;;4.35;1.35;;;24.40;99.90;;;;;;5051322;28;20087;-58
2023/08/11 12:02:16;;;;;;;2.50;1.20;;;19.80;99.90;;;;;;5050415;28;20031;-59
2023/08/11 12:04:46;;;;;;;5.65;1.33;;;23.10;99.90;;;;;;5039922;28;20100;-55
2023/08/11 12:07:30;;;;;;;4.55;1.30;;;23.00;99.90;;;;;;5038536;28;20026;-57
2023/08/11 12:09:56;;;;;;;2.72;1.10;;;22.30;99.90;;;;;;5031959;28;20113;-52
2023/08/11 12:12:26;;;;;;;2.47;1.00;;;21.90;99.90;;;;;;5032612;28;20053;-50
2023/08/11 12:14:53;;;;;;;4.72;1.05;;;21.80;99.90;;;;;;5045611;28;20030;-58
2023/08/11 12:17:18;;;;;;;1.48;0.85;;;21.60;99.90;;;;;;5045442;28;20527;-54
2023/08/11 12:19:45;;;;;;;4.00;1.13;;;22.70;99.90;;;;;;5038106;28;20113;-51
2023/08/11 12:22:11;;;;;;;3.33;0.88;;;21.10;99.90;;;;;;5040759;28;20057;-56
2023/08/11 12:24:36;;;;;;;6.15;1.83;;;21.90;99.90;;;;;;5045629;28;20061;-54
2023/08/11 12:27:03;;;;;;;2.08;0.98;;;23.60;99.90;;;;;;5039805;28;20025;-60
2023/08/11 12:29:29;;;;;;;2.58;1.08;;;22.00;99.90;;;;;;5039924;28;20508;-60
2023/08/11 12:31:54;;;;;;;3.78;1.00;;;24.60;99.90;;;;;;5033379;28;20030;-60
2023/08/11 12:34:20;;;;;;;2.33;1.00;;;22.70;99.90;;;;;;5038763;28;20013;-60
2023/08/11 12:36:45;;;;;;;3.55;0.93;;;22.10;99.90;;;;;;5039613;28;20064;-61
2023/08/11 12:39:11;;;;;;;4.25;1.23;;;21.60;99.90;;;;;;5033029;28;20040;-49
2023/08/11 12:41:38;;;;;;;4.30;1.50;;;21.50;99.90;;;;;;5042303;28;20052;-52
2023/08/11 12:44:04;;;;;;;2.72;0.98;;;21.40;99.90;;;;;;5050999;28;20025;-54
2023/08/11 12:46:30;;;;;;;8.27;1.60;;;21.30;99.90;;;;;;5045068;28;20056;-55
2023/08/11 12:48:56;;;;;;;5.05;1.23;;;20.20;99.90;;;;;;5039047;28;20034;-54
2023/08/11 12:51:22;;;;;;;4.28;1.23;;;21.10;99.90;;;;;;5037374;28;20040;-50